createdAt,value
2022-10-25T00:00:45.261Z,81.63
2022-10-25T00:01:45.994Z,81.52
2022-10-25T00:02:46.760Z,81.52
2022-10-25T00:03:47.410Z,81.43
2022-10-25T00:04:48.131Z,81.43
2022-10-25T00:05:48.737Z,81.32
2022-10-25T00:06:49.329Z,81.23
2022-10-25T00:07:49.945Z,81.23
2022-10-25T00:08:50.530Z,81.12
2022-10-25T00:09:51.223Z,81.02
2022-10-25T00:10:51.822Z,80.92
2022-10-25T00:11:52.424Z,80.82
2022-10-25T00:12:53.016Z,80.82
2022-10-25T00:13:53.603Z,80.72
2022-10-25T00:14:54.248Z,80.62
2022-10-25T00:15:54.837Z,80.62
2022-10-25T00:16:55.431Z,80.41
2022-10-25T00:17:56.042Z,80.41
2022-10-25T00:18:56.637Z,80.31
2022-10-25T00:19:57.361Z,80.01
2022-10-25T00:20:57.981Z,80.01
2022-10-25T00:21:58.593Z,79.91
2022-10-25T00:22:59.177Z,79.80
2022-10-25T00:23:59.776Z,79.71
2022-10-25T00:25:00.484Z,79.80
2022-10-25T00:26:01.072Z,79.91
2022-10-25T00:27:01.665Z,80.01
2022-10-25T00:28:02.262Z,80.15
2022-10-25T00:29:02.855Z,80.35
2022-10-25T00:30:03.591Z,80.45
2022-10-25T00:31:04.176Z,80.55
2022-10-25T00:32:04.759Z,80.65
2022-10-25T00:33:05.395Z,80.76
2022-10-25T00:34:05.975Z,80.86
2022-10-25T00:35:06.703Z,80.96
2022-10-25T00:36:07.300Z,81.06
2022-10-25T00:37:07.881Z,81.06
2022-10-25T00:38:08.481Z,81.16
2022-10-25T00:39:09.099Z,81.26
2022-10-25T00:40:09.737Z,81.26
2022-10-25T00:41:10.324Z,81.46
2022-10-25T00:42:10.907Z,81.57
2022-10-25T00:43:11.493Z,81.67
2022-10-25T00:44:12.096Z,81.77
2022-10-25T00:45:12.727Z,81.77
2022-10-25T00:46:13.311Z,81.87
2022-10-25T00:47:13.902Z,81.87
2022-10-25T00:48:14.516Z,81.77
2022-10-25T00:49:15.106Z,81.77
2022-10-25T00:50:15.812Z,81.77
2022-10-25T00:51:16.405Z,81.67
2022-10-25T00:52:16.998Z,81.57
2022-10-25T00:53:17.584Z,81.57
2022-10-25T00:54:18.196Z,81.67
2022-10-25T00:55:18.871Z,81.67
2022-10-25T00:56:19.513Z,81.77
2022-10-25T00:57:20.103Z,81.87
2022-10-25T00:58:20.686Z,82.07
2022-10-25T00:59:21.288Z,82.42
2022-10-25T01:00:21.988Z,82.72
2022-10-25T01:01:22.708Z,82.92
2022-10-25T01:02:23.418Z,83.23
2022-10-25T01:03:24.117Z,83.53
2022-10-25T01:04:24.711Z,83.77
2022-10-25T01:05:25.485Z,84.08
2022-10-25T01:06:26.069Z,84.28
2022-10-25T01:07:26.665Z,84.58
2022-10-25T01:08:27.259Z,84.78
2022-10-25T01:09:27.850Z,84.99
2022-10-25T01:10:28.528Z,85.09
2022-10-25T01:11:29.129Z,85.09
2022-10-25T01:12:29.721Z,85.19
2022-10-25T01:13:30.315Z,85.19
2022-10-25T01:14:30.908Z,85.19
2022-10-25T01:15:31.595Z,85.19
2022-10-25T01:16:32.183Z,85.19
2022-10-25T01:17:32.776Z,85.24
2022-10-25T01:18:33.382Z,85.33
2022-10-25T01:20:33.590Z,85.09
2022-10-25T01:21:35.180Z,84.83
2022-10-25T01:22:35.786Z,84.52
2022-10-25T01:23:36.379Z,84.08
2022-10-25T01:24:36.970Z,83.47
2022-10-25T01:25:37.694Z,82.96
2022-10-25T01:26:38.319Z,82.66
2022-10-25T01:27:38.905Z,82.45
2022-10-25T01:28:39.512Z,82.15
2022-10-25T01:29:40.106Z,81.85
2022-10-25T01:30:40.788Z,81.64
2022-10-25T01:31:41.388Z,81.40
2022-10-25T01:32:41.979Z,81.10
2022-10-25T01:33:42.596Z,80.79
2022-10-25T01:34:43.177Z,80.39
2022-10-25T01:35:43.848Z,79.88
2022-10-25T01:36:44.440Z,79.78
2022-10-25T01:37:45.353Z,79.68
2022-10-25T01:38:45.554Z,79.58
2022-10-25T01:39:46.153Z,79.58
2022-10-25T01:40:46.791Z,79.47
2022-10-25T01:41:47.407Z,79.38
2022-10-25T01:42:48.008Z,79.38
2022-10-25T01:43:48.598Z,79.27
2022-10-25T01:44:49.187Z,79.03
2022-10-25T01:45:49.977Z,78.97
2022-10-25T01:46:50.570Z,78.87
2022-10-25T01:47:51.161Z,78.66
2022-10-25T01:48:51.783Z,78.66
2022-10-25T01:49:52.371Z,78.56
2022-10-25T01:50:53.072Z,78.63
2022-10-25T01:51:53.667Z,78.63
2022-10-25T01:53:53.839Z,78.33
2022-10-25T01:54:55.435Z,78.22
2022-10-25T01:55:56.087Z,77.92
2022-10-25T01:56:56.682Z,77.51
2022-10-25T01:57:57.267Z,77.01
2022-10-25T01:58:57.847Z,76.60
2022-10-25T01:59:58.446Z,76.29
2022-10-25T02:00:59.286Z,76.20
2022-10-25T02:01:59.952Z,75.99
2022-10-25T02:03:00.567Z,75.89
2022-10-25T02:04:01.195Z,75.69
2022-10-25T02:05:01.789Z,75.79
2022-10-25T02:06:02.470Z,75.79
2022-10-25T02:07:03.077Z,75.89
2022-10-25T02:08:03.685Z,75.99
2022-10-25T02:09:04.283Z,75.99
2022-10-25T02:11:04.581Z,76.29
2022-10-25T02:12:06.186Z,76.40
2022-10-25T02:13:06.780Z,76.50
2022-10-25T02:14:07.374Z,76.64
2022-10-25T02:15:07.977Z,76.94
2022-10-25T02:16:08.764Z,77.14
2022-10-25T02:17:09.377Z,77.25
2022-10-25T02:18:09.966Z,77.14
2022-10-25T02:19:10.589Z,77.04
2022-10-25T02:20:11.182Z,76.94
2022-10-25T02:21:11.948Z,76.84
2022-10-25T02:22:12.543Z,76.84
2022-10-25T02:23:13.151Z,76.74
2022-10-25T02:24:13.743Z,76.64
2022-10-25T02:25:14.337Z,76.43
2022-10-25T02:26:15.143Z,76.03
2022-10-25T02:27:15.743Z,75.69
2022-10-25T02:28:16.329Z,75.59
2022-10-25T02:29:16.927Z,75.69
2022-10-25T02:30:17.523Z,75.69
2022-10-25T02:31:18.274Z,75.69
2022-10-25T02:32:18.874Z,75.93
2022-10-25T02:33:19.474Z,76.23
2022-10-25T02:34:20.091Z,76.64
2022-10-25T02:35:20.680Z,76.94
2022-10-25T02:36:21.351Z,77.14
2022-10-25T02:37:21.942Z,77.45
2022-10-25T02:38:22.547Z,77.48
2022-10-25T02:39:26.398Z,77.48
2022-10-25T02:40:24.065Z,77.38
2022-10-25T02:41:24.717Z,77.18
2022-10-25T02:42:25.326Z,77.18
2022-10-25T02:43:25.992Z,76.98
2022-10-25T02:44:26.639Z,76.98
2022-10-25T02:45:27.236Z,77.08
2022-10-25T02:46:27.883Z,77.28
2022-10-25T02:47:28.479Z,77.59
2022-10-25T02:48:29.073Z,77.69
2022-10-25T02:49:29.707Z,77.79
2022-10-25T02:50:30.299Z,77.89
2022-10-25T02:51:31.115Z,77.89
2022-10-25T02:52:31.700Z,77.79
2022-10-25T02:53:32.289Z,77.99
2022-10-25T02:54:32.883Z,78.09
2022-10-25T02:55:33.485Z,78.09
2022-10-25T02:56:34.136Z,77.99
2022-10-25T02:57:34.731Z,77.89
2022-10-25T02:58:35.327Z,77.89
2022-10-25T02:59:35.930Z,77.79
2022-10-25T03:00:36.612Z,77.48
2022-10-25T03:01:37.326Z,77.38
2022-10-25T03:02:37.954Z,77.08
2022-10-25T03:03:38.543Z,76.78
2022-10-25T03:04:39.169Z,76.37
2022-10-25T03:05:39.768Z,76.17
2022-10-25T03:06:40.487Z,76.06
2022-10-25T03:07:41.086Z,76.13
2022-10-25T03:08:41.681Z,76.23
2022-10-25T03:09:42.269Z,76.23
2022-10-25T03:10:42.857Z,76.47
2022-10-25T03:11:43.600Z,76.47
2022-10-25T03:12:44.564Z,76.47
2022-10-25T03:13:44.807Z,76.57
2022-10-25T03:14:45.402Z,76.57
2022-10-25T03:15:45.984Z,76.47
2022-10-25T03:17:46.798Z,76.37
2022-10-25T03:18:48.147Z,76.17
2022-10-25T03:19:48.768Z,76.17
2022-10-25T03:20:49.353Z,76.17
2022-10-25T03:21:50.671Z,76.06
2022-10-25T03:22:50.757Z,75.86
2022-10-25T03:23:51.348Z,75.76
2022-10-25T03:24:51.937Z,75.62
2022-10-25T03:25:54.290Z,75.42
2022-10-25T03:26:53.289Z,75.22
2022-10-25T03:27:53.875Z,75.22
2022-10-25T03:28:54.473Z,75.42
2022-10-25T03:29:55.075Z,75.62
2022-10-25T03:30:55.665Z,75.93
2022-10-25T03:31:56.340Z,76.03
2022-10-25T03:32:56.939Z,75.93
2022-10-25T03:33:57.529Z,75.96
2022-10-25T03:34:58.160Z,75.86
2022-10-25T03:35:58.748Z,75.86
2022-10-25T03:36:59.488Z,75.66
2022-10-25T03:38:00.089Z,75.22
2022-10-25T03:39:00.697Z,75.12
2022-10-25T03:40:01.299Z,75.12
2022-10-25T03:41:01.909Z,75.32
2022-10-25T03:42:02.601Z,75.32
2022-10-25T03:43:03.210Z,75.32
2022-10-25T03:44:03.795Z,75.22
2022-10-25T03:45:04.395Z,75.12
2022-10-25T03:46:04.993Z,75.22
2022-10-25T03:47:05.643Z,75.22
2022-10-25T03:48:06.240Z,75.32
2022-10-25T03:49:06.829Z,75.32
2022-10-25T03:50:07.443Z,75.42
2022-10-25T03:51:08.040Z,75.32
2022-10-25T03:52:08.775Z,75.12
2022-10-25T03:54:08.966Z,75.12
2022-10-25T03:55:10.589Z,75.22
2022-10-25T03:56:11.173Z,75.25
2022-10-25T03:57:11.807Z,75.15
2022-10-25T03:58:12.393Z,75.01
2022-10-25T03:59:12.989Z,74.81
2022-10-25T04:00:13.580Z,74.51
2022-10-25T04:01:14.370Z,74.30
2022-10-25T04:02:15.205Z,74.21
2022-10-25T04:03:15.823Z,74.10
2022-10-25T04:04:16.443Z,74.00
2022-10-25T04:05:17.067Z,74.00
2022-10-25T04:06:17.663Z,73.90
2022-10-25T04:07:18.338Z,73.80
2022-10-25T04:08:18.951Z,73.60
2022-10-25T04:09:19.539Z,73.49
2022-10-25T04:10:20.135Z,73.46
2022-10-25T04:11:20.737Z,73.36
2022-10-25T04:12:21.533Z,73.16
2022-10-25T04:13:22.078Z,73.05
2022-10-25T04:14:22.678Z,73.05
2022-10-25T04:15:23.270Z,73.05
2022-10-25T04:16:23.862Z,73.05
2022-10-25T04:17:24.501Z,72.96
2022-10-25T04:18:25.099Z,73.05
2022-10-25T04:19:25.651Z,73.05
2022-10-25T04:20:26.217Z,73.16
2022-10-25T04:21:26.750Z,73.16
2022-10-25T04:22:27.369Z,73.25
2022-10-25T04:23:27.967Z,73.25
2022-10-25T04:24:28.521Z,73.36
2022-10-25T04:25:29.062Z,73.36
2022-10-25T04:26:29.594Z,73.56
2022-10-25T04:27:30.255Z,73.56
2022-10-25T04:28:30.796Z,73.76
2022-10-25T04:29:31.338Z,73.86
2022-10-25T04:30:35.163Z,73.97
2022-10-25T04:31:32.753Z,74.07
2022-10-25T04:32:33.357Z,74.17
2022-10-25T04:33:34.756Z,74.21
2022-10-25T04:34:34.804Z,73.70
2022-10-25T04:35:35.453Z,73.60
2022-10-25T04:36:36.234Z,73.39
2022-10-25T04:37:36.838Z,73.36
2022-10-25T04:38:37.380Z,73.16
2022-10-25T04:39:37.939Z,72.96
2022-10-25T04:40:38.493Z,72.96
2022-10-25T04:42:01.240Z,72.85
2022-10-25T04:42:40.894Z,72.89
2022-10-25T04:43:40.833Z,72.85
2022-10-25T04:44:41.550Z,72.75
2022-10-25T04:45:42.418Z,72.75
2022-10-25T04:46:46.372Z,72.75
2022-10-25T04:47:43.913Z,72.55
2022-10-25T04:48:44.462Z,72.55
2022-10-25T04:49:45.039Z,72.45
2022-10-25T04:50:45.888Z,72.24
2022-10-25T04:51:46.464Z,72.14
2022-10-25T04:52:47.648Z,72.04
2022-10-25T04:53:47.899Z,72.04
2022-10-25T04:54:48.440Z,71.94
2022-10-25T04:55:49.747Z,71.94
2022-10-25T04:56:49.797Z,71.94
2022-10-25T04:57:50.424Z,71.94
2022-10-25T04:58:51.008Z,71.94
2022-10-25T04:59:51.540Z,71.94
2022-10-25T05:00:52.083Z,71.94
2022-10-25T05:01:52.675Z,71.84
2022-10-25T05:03:02.786Z,71.73
2022-10-25T05:03:54.365Z,71.53
2022-10-25T05:04:54.920Z,71.44
2022-10-25T05:05:58.236Z,71.30
2022-10-25T05:06:56.281Z,71.09
2022-10-25T05:07:56.839Z,70.89
2022-10-25T05:08:57.469Z,70.69
2022-10-25T05:09:58.347Z,70.49
2022-10-25T05:10:58.969Z,70.49
2022-10-25T05:12:00.261Z,70.39
2022-10-25T05:13:00.592Z,70.49
2022-10-25T05:14:04.032Z,70.49
2022-10-25T05:15:02.967Z,70.36
2022-10-25T05:16:19.426Z,70.39
2022-10-25T05:17:15.364Z,70.15
2022-10-25T05:18:04.436Z,69.95
2022-10-25T05:19:05.179Z,69.65
2022-10-25T05:20:05.747Z,69.65
2022-10-25T05:21:19.384Z,69.54
2022-10-25T05:22:07.709Z,69.44
2022-10-25T05:23:13.765Z,69.34
2022-10-25T05:24:08.605Z,69.34
2022-10-25T05:25:10.134Z,69.31
2022-10-25T05:26:10.111Z,69.51
2022-10-25T05:27:10.646Z,69.51
2022-10-25T05:28:11.155Z,69.61
2022-10-25T05:29:11.735Z,69.71
2022-10-25T05:30:12.243Z,69.85
2022-10-25T05:31:12.972Z,69.85
2022-10-25T05:32:13.797Z,69.95
2022-10-25T05:33:14.463Z,70.05
2022-10-25T05:34:19.866Z,70.15
2022-10-25T05:35:19.620Z,70.02
2022-10-25T05:36:25.950Z,69.92
2022-10-25T05:37:17.694Z,70.02
2022-10-25T05:38:18.205Z,69.92
2022-10-25T05:39:18.712Z,69.92
2022-10-25T05:40:19.257Z,69.81
2022-10-25T05:41:19.803Z,69.71
2022-10-25T05:42:20.305Z,69.61
2022-10-25T05:43:20.991Z,69.38
2022-10-25T05:44:21.491Z,69.27
2022-10-25T05:45:30.631Z,68.97
2022-10-25T05:46:22.668Z,68.87
2022-10-25T05:47:26.004Z,68.57
2022-10-25T05:48:23.701Z,68.23
2022-10-25T05:49:25.147Z,67.83
2022-10-25T05:50:24.878Z,67.63
2022-10-25T05:51:33.202Z,67.12
2022-10-25T05:52:26.313Z,66.58
2022-10-25T05:53:26.818Z,66.48
2022-10-25T05:54:27.314Z,66.69
2022-10-25T05:55:27.818Z,66.55
2022-10-25T05:56:28.356Z,66.25
2022-10-25T05:57:36.896Z,65.51
2022-10-25T05:58:36.088Z,64.78
2022-10-25T05:59:30.629Z,63.70
2022-10-25T06:00:40.779Z,61.40
2022-10-25T06:01:32.369Z,59.83
2022-10-25T06:02:33.079Z,58.77
2022-10-25T06:05:40.549Z,54.32
2022-10-25T06:06:43.099Z,53.37
2022-10-25T06:08:01.394Z,52.44
2022-10-25T06:12:44.288Z,49.65
2022-10-25T06:13:46.298Z,49.25
2022-10-25T06:14:50.225Z,48.63
2022-10-25T06:16:09.330Z,48.43
2022-10-25T06:16:48.329Z,47.68
2022-10-25T06:17:51.226Z,46.98
2022-10-25T06:18:50.140Z,46.46
2022-10-25T06:19:50.237Z,45.74
2022-10-25T06:20:50.800Z,45.10
2022-10-25T06:21:51.318Z,43.98
2022-10-25T06:22:51.852Z,43.44
2022-10-25T06:23:52.438Z,42.33
2022-10-25T06:24:52.948Z,41.30
2022-10-25T06:25:53.446Z,40.56
2022-10-25T06:26:53.941Z,39.85
2022-10-25T06:27:54.464Z,39.43
2022-10-25T06:28:54.973Z,38.32
2022-10-25T06:29:55.474Z,38.21
2022-10-25T06:30:55.978Z,38.01
2022-10-25T06:31:56.654Z,37.70
2022-10-25T06:32:58.990Z,37.77
2022-10-25T06:33:57.795Z,37.26
2022-10-25T06:35:04.197Z,36.75
2022-10-25T06:35:58.835Z,36.34
2022-10-25T06:36:59.348Z,36.04
2022-10-25T06:37:59.885Z,35.73
2022-10-25T06:39:05.771Z,35.41
2022-10-25T06:40:01.296Z,35.10
2022-10-25T06:41:01.819Z,34.89
2022-10-25T06:42:04.316Z,34.48
2022-10-25T06:43:13.397Z,34.36
2022-10-25T06:44:06.387Z,34.15
2022-10-25T06:45:04.607Z,33.94
2022-10-25T06:46:05.118Z,33.13
2022-10-25T06:47:16.811Z,32.51
2022-10-25T06:48:06.481Z,32.20
2022-10-25T06:49:07.312Z,31.89
2022-10-25T06:51:07.359Z,30.77
2022-10-25T06:52:08.862Z,30.36
2022-10-25T06:53:09.458Z,30.16
2022-10-25T06:54:09.988Z,30.05
2022-10-25T06:55:10.578Z,29.84
2022-10-25T06:56:14.462Z,29.64
2022-10-25T06:57:11.785Z,29.73
2022-10-25T06:58:12.318Z,29.83
2022-10-25T06:59:12.969Z,29.73
2022-10-25T07:00:13.465Z,29.61
2022-10-25T07:01:14.152Z,29.71
2022-10-25T07:02:18.142Z,29.71
2022-10-25T07:03:15.754Z,28.92
2022-10-25T07:04:16.294Z,28.32
2022-10-25T07:05:16.843Z,27.81
2022-10-25T07:06:17.488Z,27.80
2022-10-25T07:07:18.089Z,27.80
2022-10-25T07:08:28.261Z,27.80
2022-10-25T07:09:34.641Z,27.69
2022-10-25T07:10:20.273Z,27.69
2022-10-25T07:11:20.819Z,27.89
2022-10-25T07:12:21.356Z,27.89
2022-10-25T07:13:22.072Z,27.98
2022-10-25T07:14:22.650Z,27.87
2022-10-25T07:15:35.451Z,27.97
2022-10-25T07:16:24.035Z,27.66
2022-10-25T07:17:24.548Z,27.36
2022-10-25T07:18:25.213Z,27.26
2022-10-25T07:19:25.722Z,27.25
2022-10-25T07:20:26.329Z,27.04
2022-10-25T07:21:26.883Z,26.64
2022-10-25T07:22:28.475Z,26.72
2022-10-25T07:23:28.512Z,26.81
2022-10-25T07:24:29.028Z,26.71
2022-10-25T07:25:29.586Z,27.00
2022-10-25T07:26:30.955Z,26.71
2022-10-25T07:27:30.728Z,26.50
2022-10-25T07:28:31.262Z,26.49
2022-10-25T07:29:31.764Z,26.09
2022-10-25T07:30:32.272Z,26.09
2022-10-25T07:31:32.777Z,26.09
2022-10-25T07:32:33.296Z,25.78
2022-10-25T07:33:33.853Z,24.33
2022-10-25T07:34:34.360Z,24.92
2022-10-25T07:35:41.983Z,25.41
2022-10-25T07:36:51.187Z,25.41
2022-10-25T07:37:36.629Z,25.78
2022-10-25T07:38:45.836Z,25.87
2022-10-25T07:39:37.821Z,25.85
2022-10-25T07:40:38.369Z,25.95
2022-10-25T07:41:38.864Z,25.85
2022-10-25T07:42:39.425Z,26.14
2022-10-25T07:43:39.971Z,26.34
2022-10-25T07:44:40.515Z,26.43
2022-10-25T07:47:29.902Z,26.54
2022-10-25T07:48:32.074Z,26.65
2022-10-25T07:49:33.762Z,27.35
2022-10-25T07:50:33.866Z,27.66
2022-10-25T07:51:40.877Z,28.25
2022-10-25T07:52:34.254Z,28.34
2022-10-25T07:53:39.768Z,28.96
2022-10-25T07:54:35.946Z,29.26
2022-10-25T07:55:36.678Z,29.86
2022-10-25T07:56:37.253Z,30.05
2022-10-25T07:57:37.751Z,29.66
2022-10-25T07:58:38.259Z,29.58
2022-10-25T07:59:38.798Z,30.18
2022-10-25T08:00:39.309Z,30.10
2022-10-25T08:01:40.932Z,30.71
2022-10-25T08:02:43.446Z,31.12
2022-10-25T08:03:41.197Z,31.82
2022-10-25T08:04:41.758Z,32.32
2022-10-25T08:05:42.295Z,32.42
2022-10-25T08:06:43.073Z,32.92
2022-10-25T08:07:43.659Z,33.53
2022-10-25T08:08:44.183Z,33.94
2022-10-25T08:09:45.061Z,34.44
2022-10-25T08:22:23.526Z,37.36
2022-10-25T08:23:24.544Z,37.97
2022-10-25T08:24:25.562Z,38.56
2022-10-25T08:25:33.883Z,39.05
2022-10-25T08:26:26.521Z,39.47
2022-10-25T08:27:27.116Z,39.76
2022-10-25T08:28:27.733Z,39.74
2022-10-25T08:29:28.246Z,39.84
2022-10-25T08:30:28.753Z,39.95
2022-10-25T08:31:29.311Z,40.25
2022-10-25T08:32:30.949Z,39.84
2022-10-25T08:33:30.459Z,39.64
2022-10-25T08:34:33.164Z,39.72
2022-10-25T08:35:31.836Z,39.32
2022-10-25T08:36:32.456Z,39.23
2022-10-25T08:37:33.003Z,39.11
2022-10-25T08:38:33.506Z,38.82
2022-10-25T08:39:34.058Z,38.60
2022-10-25T08:40:34.752Z,38.40
2022-10-25T08:41:36.340Z,38.40
2022-10-25T08:42:35.832Z,38.11
2022-10-25T08:43:36.331Z,38.01
2022-10-25T08:44:44.591Z,37.90
2022-10-25T08:45:37.856Z,37.58
2022-10-25T08:46:45.693Z,37.27
2022-10-25T08:47:39.376Z,36.57
2022-10-25T08:48:39.879Z,35.85
2022-10-25T08:49:40.539Z,35.22
2022-10-25T08:50:40.907Z,34.80
2022-10-25T08:51:41.558Z,33.90
2022-10-25T08:52:42.123Z,32.89
2022-10-25T08:53:42.690Z,32.37
2022-10-25T08:54:43.215Z,31.67
2022-10-25T08:55:58.740Z,31.27
2022-10-25T08:57:14.051Z,30.46
2022-10-25T08:57:45.849Z,29.65
2022-10-25T08:58:46.078Z,29.33
2022-10-25T08:59:46.586Z,28.43
2022-10-25T09:00:47.092Z,27.92
2022-10-25T09:01:47.710Z,27.01
2022-10-25T09:02:48.382Z,26.41
2022-10-25T09:03:48.880Z,26.01
2022-10-25T09:04:49.425Z,25.40
2022-10-25T09:05:49.933Z,25.20
2022-10-25T09:06:50.506Z,24.90
2022-10-25T09:07:51.057Z,24.69
2022-10-25T09:08:52.586Z,24.30
2022-10-25T09:09:52.516Z,24.29
2022-10-25T09:10:52.842Z,24.01
2022-10-25T09:11:53.424Z,24.09
2022-10-25T09:12:54.075Z,23.99
2022-10-25T09:13:54.765Z,24.19
2022-10-25T09:14:55.322Z,23.88
2022-10-25T09:15:55.948Z,23.68
2022-10-25T09:16:56.444Z,23.39
2022-10-25T09:17:57.031Z,23.60
2022-10-25T09:19:02.153Z,23.60
2022-10-25T09:19:58.486Z,23.49
2022-10-25T09:20:59.278Z,23.67
2022-10-25T09:22:00.797Z,23.38
2022-10-25T09:23:01.446Z,23.67
2022-10-25T09:24:01.169Z,23.57
2022-10-25T09:25:01.751Z,23.67
2022-10-25T09:26:09.856Z,23.77
2022-10-25T09:27:03.150Z,23.87
2022-10-25T09:28:05.494Z,24.26
2022-10-25T09:29:10.396Z,24.37
2022-10-25T09:32:19.684Z,23.36
2022-10-25T09:33:18.741Z,23.14
2022-10-25T09:34:20.694Z,23.14
2022-10-25T09:35:20.192Z,23.62
2022-10-25T09:36:20.714Z,23.62
2022-10-25T09:37:21.362Z,23.42
2022-10-25T09:38:45.521Z,23.42
2022-10-25T09:39:22.569Z,23.42
2022-10-25T09:40:23.115Z,23.72
2022-10-25T09:41:23.640Z,23.91
2022-10-25T09:42:30.178Z,23.92
2022-10-25T09:43:25.478Z,24.32
2022-10-25T09:44:25.978Z,24.41
2022-10-25T09:45:26.558Z,24.32
2022-10-25T09:46:27.360Z,24.62
2022-10-25T09:47:27.796Z,24.51
2022-10-25T09:48:28.330Z,24.81
2022-10-25T09:49:28.827Z,24.51
2022-10-25T09:50:29.333Z,24.62
2022-10-25T09:51:29.834Z,24.71
2022-10-25T09:52:30.675Z,25.01
2022-10-25T09:53:31.002Z,24.71
2022-10-25T09:54:32.237Z,24.62
2022-10-25T09:55:32.205Z,24.52
2022-10-25T09:56:36.461Z,24.33
2022-10-25T09:57:33.599Z,24.04
2022-10-25T09:58:34.140Z,24.33
2022-10-25T09:59:34.648Z,24.14
2022-10-25T10:00:35.198Z,24.33
2022-10-25T10:01:35.860Z,24.73
2022-10-25T10:02:36.575Z,24.63
2022-10-25T10:03:37.224Z,24.55
2022-10-25T10:04:37.890Z,23.86
2022-10-25T10:05:38.397Z,24.15
2022-10-25T10:06:38.905Z,24.55
2022-10-25T10:07:39.415Z,24.55
2022-10-25T10:08:40.016Z,24.74
2022-10-25T10:09:44.933Z,24.55
2022-10-25T10:10:41.379Z,24.95
2022-10-25T10:11:41.877Z,25.33
2022-10-25T10:12:42.376Z,25.23
2022-10-25T10:13:42.931Z,25.23
2022-10-25T10:14:43.911Z,25.82
2022-10-25T10:15:43.937Z,26.32
2022-10-25T10:16:44.430Z,26.32
2022-10-25T10:17:45.214Z,26.42
2022-10-25T10:18:45.939Z,26.51
2022-10-25T10:19:46.461Z,26.51
2022-10-25T10:20:46.978Z,26.21
2022-10-25T10:21:47.481Z,26.00
2022-10-25T10:23:52.979Z,25.33
2022-10-25T10:24:54.374Z,25.44
2022-10-25T10:25:51.352Z,25.54
2022-10-25T10:26:51.994Z,25.84
2022-10-25T10:27:52.013Z,26.23
2022-10-25T10:28:52.633Z,26.53
2022-10-25T10:29:53.227Z,26.62
2022-10-25T10:30:53.732Z,26.81
2022-10-25T10:31:54.228Z,26.51
2022-10-25T10:32:57.129Z,26.79
2022-10-25T10:33:55.635Z,27.28
2022-10-25T10:34:56.137Z,27.39
2022-10-25T10:35:56.641Z,27.78
2022-10-25T10:36:57.148Z,28.28
2022-10-25T10:37:57.656Z,27.87
2022-10-25T10:38:58.223Z,27.67
2022-10-25T10:39:58.750Z,27.94
2022-10-25T10:40:59.257Z,27.85
2022-10-25T10:41:59.791Z,28.05
2022-10-25T10:43:00.292Z,28.44
2022-10-25T10:44:00.915Z,28.25
2022-10-25T10:45:01.420Z,28.04
2022-10-25T10:46:01.925Z,27.94
2022-10-25T10:47:02.429Z,28.23
2022-10-25T10:48:02.933Z,28.53
2022-10-25T10:49:03.534Z,29.13
2022-10-25T10:50:04.079Z,29.03
2022-10-25T10:51:06.604Z,28.83
2022-10-25T10:52:05.496Z,28.83
2022-10-25T10:53:06.007Z,28.83
2022-10-25T10:54:06.872Z,28.33
2022-10-25T10:55:07.410Z,28.41
2022-10-25T10:56:07.914Z,28.02
2022-10-25T10:57:08.438Z,27.61
2022-10-25T10:58:08.950Z,27.42
2022-10-25T10:59:09.479Z,27.69
2022-10-25T11:00:10.133Z,27.49
2022-10-25T11:01:11.341Z,27.59
2022-10-25T11:02:11.759Z,27.69
2022-10-25T11:03:12.421Z,27.69
2022-10-25T11:04:12.959Z,27.49
2022-10-25T11:05:13.459Z,27.59
2022-10-25T11:06:13.961Z,27.30
2022-10-25T11:07:14.457Z,27.40
2022-10-25T11:08:14.971Z,27.71
2022-10-25T11:09:15.570Z,27.72
2022-10-25T11:10:16.104Z,27.72
2022-10-25T11:11:16.610Z,27.82
2022-10-25T11:12:17.116Z,27.82
2022-10-25T11:13:17.930Z,28.02
2022-10-25T11:14:18.487Z,28.31
2022-10-25T11:15:18.988Z,28.02
2022-10-25T11:16:21.942Z,27.72
2022-10-25T11:17:20.350Z,27.33
2022-10-25T11:18:20.847Z,27.53
2022-10-25T11:19:21.381Z,27.44
2022-10-25T11:20:21.891Z,27.53
2022-10-25T11:21:22.390Z,27.34
2022-10-25T11:22:22.899Z,27.05
2022-10-25T11:23:23.390Z,27.16
2022-10-25T11:24:23.982Z,26.97
2022-10-25T11:25:24.619Z,26.97
2022-10-25T11:26:25.127Z,27.06
2022-10-25T11:27:25.630Z,27.17
2022-10-25T11:28:26.153Z,27.27
2022-10-25T11:29:26.682Z,27.06
2022-10-25T11:30:27.226Z,26.67
2022-10-25T11:31:27.722Z,26.06
2022-10-25T11:32:28.288Z,25.96
2022-10-25T11:33:28.812Z,25.27
2022-10-25T11:34:29.350Z,25.46
2022-10-25T11:35:29.853Z,24.87
2022-10-25T11:36:30.354Z,24.95
2022-10-25T11:37:30.851Z,24.86
2022-10-25T11:38:31.348Z,25.06
2022-10-25T11:39:31.969Z,25.06
2022-10-25T11:40:32.605Z,25.16
2022-10-25T11:41:33.115Z,25.35
2022-10-25T11:42:33.615Z,25.35
2022-10-25T11:43:34.117Z,25.34
2022-10-25T11:44:34.654Z,24.85
2022-10-25T11:45:35.159Z,24.85
2022-10-25T11:46:35.656Z,24.85
2022-10-25T11:47:38.107Z,24.86
2022-10-25T11:48:37.044Z,25.05
2022-10-25T11:49:37.594Z,25.26
2022-10-25T11:50:38.091Z,25.35
2022-10-25T11:51:38.601Z,25.45
2022-10-25T11:52:39.109Z,25.05
2022-10-25T11:53:39.613Z,24.45
2022-10-25T11:54:40.142Z,24.15
2022-10-25T11:55:40.762Z,23.86
2022-10-25T11:56:41.257Z,23.96
2022-10-25T11:57:41.779Z,23.86
2022-10-25T11:58:42.280Z,24.05
2022-10-25T11:59:42.815Z,24.07
2022-10-25T12:00:43.314Z,24.16
2022-10-25T12:01:43.865Z,24.26
2022-10-25T12:02:44.550Z,23.97
2022-10-25T12:03:45.189Z,24.27
2022-10-25T12:04:45.742Z,24.46
2022-10-25T12:05:46.249Z,24.65
2022-10-25T12:06:46.749Z,24.85
2022-10-25T12:07:47.263Z,24.64
2022-10-25T12:08:47.769Z,24.34
2022-10-25T12:09:48.352Z,24.14
2022-10-25T12:10:48.987Z,24.03
2022-10-25T12:11:49.482Z,24.14
2022-10-25T12:12:50.410Z,24.52
2022-10-25T12:13:50.669Z,24.82
2022-10-25T12:14:51.200Z,24.73
2022-10-25T12:15:51.701Z,24.65
2022-10-25T12:16:52.201Z,24.86
2022-10-25T12:17:52.712Z,25.06
2022-10-25T12:18:53.215Z,25.16
2022-10-25T12:19:53.750Z,25.17
2022-10-25T12:20:54.254Z,25.57
2022-10-25T12:21:56.735Z,25.68
2022-10-25T12:22:55.259Z,25.87
2022-10-25T12:23:55.764Z,25.68
2022-10-25T12:24:56.351Z,25.69
2022-10-25T12:25:56.971Z,25.88
2022-10-25T12:26:57.464Z,25.59
2022-10-25T12:27:57.974Z,25.32
2022-10-25T12:28:58.478Z,25.60
2022-10-25T12:29:59.026Z,25.70
2022-10-25T12:30:59.534Z,25.70
2022-10-25T12:32:00.031Z,25.60
2022-10-25T12:33:00.522Z,25.23
2022-10-25T12:34:01.035Z,25.13
2022-10-25T12:35:01.645Z,24.95
2022-10-25T12:36:02.141Z,24.74
2022-10-25T12:37:02.633Z,24.85
2022-10-25T12:38:03.140Z,24.66
2022-10-25T12:39:03.671Z,24.86
2022-10-25T12:40:04.286Z,24.38
2022-10-25T12:41:04.910Z,24.67
2022-10-25T12:42:05.415Z,24.49
2022-10-25T12:43:05.920Z,24.68
2022-10-25T12:44:06.425Z,24.87
2022-10-25T12:45:07.104Z,25.35
2022-10-25T12:46:07.608Z,25.66
2022-10-25T12:47:08.109Z,25.64
2022-10-25T12:48:08.604Z,25.55
2022-10-25T12:49:09.112Z,25.66
2022-10-25T12:50:09.739Z,25.85
2022-10-25T12:51:12.074Z,26.04
2022-10-25T12:52:11.092Z,26.23
2022-10-25T12:53:11.600Z,26.04
2022-10-25T12:54:12.108Z,26.44
2022-10-25T12:55:12.661Z,26.44
2022-10-25T12:56:13.283Z,26.14
2022-10-25T12:57:13.805Z,26.04
2022-10-25T12:58:14.308Z,26.06
2022-10-25T12:59:14.819Z,26.34
2022-10-25T13:00:15.434Z,26.44
2022-10-25T13:01:16.014Z,26.44
2022-10-25T13:02:16.572Z,26.82
2022-10-25T13:03:19.415Z,27.92
2022-10-25T13:04:17.739Z,28.11
2022-10-25T13:05:18.291Z,28.22
2022-10-25T13:06:18.811Z,28.81
2022-10-25T13:08:20.171Z,29.69
2022-10-25T13:09:22.291Z,29.99
2022-10-25T13:10:21.701Z,30.51
2022-10-25T13:11:22.426Z,30.89
2022-10-25T13:12:22.928Z,31.09
2022-10-25T13:13:23.440Z,31.79
2022-10-25T13:14:23.939Z,32.10
2022-10-25T13:15:24.478Z,32.70
2022-10-25T13:16:25.003Z,33.20
2022-10-25T13:17:25.507Z,33.61
2022-10-25T13:18:26.018Z,34.09
2022-10-25T13:19:49.369Z,34.59
2022-10-25T13:20:27.418Z,35.00
2022-10-25T13:21:27.924Z,35.61
2022-10-25T13:22:28.428Z,36.22
2022-10-25T13:23:28.935Z,37.23
2022-10-25T13:24:29.434Z,38.04
2022-10-25T13:25:30.042Z,38.84
2022-10-25T13:26:30.663Z,39.67
2022-10-25T13:27:31.166Z,40.37
2022-10-25T13:28:35.998Z,41.29
2022-10-25T13:29:32.266Z,41.80
2022-10-25T13:30:32.809Z,42.02